sensor_id;sensor_type;location;lat;lon;timestamp;P1;durP1;ratioP1;P2;durP2;ratioP2
31347;SDS011;21711;49.708;18.568;2023-06-14T00:02:00;7.50;;;3.65;;
31347;SDS011;21711;49.708;18.568;2023-06-14T00:04:27;6.75;;;3.08;;
31347;SDS011;21711;49.708;18.568;2023-06-14T00:06:55;10.18;;;4.35;;
31347;SDS011;21711;49.708;18.568;2023-06-14T00:09:23;6.88;;;3.88;;
31347;SDS011;21711;49.708;18.568;2023-06-14T00:11:50;6.53;;;3.22;;
31347;SDS011;21711;49.708;18.568;2023-06-14T00:14:18;6.22;;;3.05;;
31347;SDS011;21711;49.708;18.568;2023-06-14T00:16:45;5.43;;;3.40;;
31347;SDS011;21711;49.708;18.568;2023-06-14T00:19:14;8.82;;;3.65;;
31347;SDS011;21711;49.708;18.568;2023-06-14T00:21:42;6.68;;;4.00;;
31347;SDS011;21711;49.708;18.568;2023-06-14T00:24:10;6.13;;;3.65;;
31347;SDS011;21711;49.708;18.568;2023-06-14T00:26:37;6.28;;;3.47;;
31347;SDS011;21711;49.708;18.568;2023-06-14T00:29:05;5.25;;;2.90;;
31347;SDS011;21711;49.708;18.568;2023-06-14T00:31:32;9.90;;;4.00;;
31347;SDS011;21711;49.708;18.568;2023-06-14T00:34:00;7.82;;;3.97;;
31347;SDS011;21711;49.708;18.568;2023-06-14T00:36:27;5.85;;;3.65;;
31347;SDS011;21711;49.708;18.568;2023-06-14T00:38:54;7.90;;;3.92;;
31347;SDS011;21711;49.708;18.568;2023-06-14T00:41:22;7.95;;;4.13;;
31347;SDS011;21711;49.708;18.568;2023-06-14T00:43:50;7.20;;;4.15;;
31347;SDS011;21711;49.708;18.568;2023-06-14T00:46:18;6.57;;;3.80;;
31347;SDS011;21711;49.708;18.568;2023-06-14T00:48:46;7.40;;;3.47;;
31347;SDS011;21711;49.708;18.568;2023-06-14T00:51:15;6.80;;;3.95;;
31347;SDS011;21711;49.708;18.568;2023-06-14T00:53:42;6.28;;;4.10;;
31347;SDS011;21711;49.708;18.568;2023-06-14T00:56:14;7.43;;;3.83;;
31347;SDS011;21711;49.708;18.568;2023-06-14T00:58:42;20.15;;;3.88;;
31347;SDS011;21711;49.708;18.568;2023-06-14T01:01:10;6.85;;;3.47;;
31347;SDS011;21711;49.708;18.568;2023-06-14T01:03:38;7.35;;;4.25;;
31347;SDS011;21711;49.708;18.568;2023-06-14T01:06:17;6.85;;;3.92;;
31347;SDS011;21711;49.708;18.568;2023-06-14T01:09:37;9.07;;;4.18;;
31347;SDS011;21711;49.708;18.568;2023-06-14T01:12:50;6.28;;;4.00;;
31347;SDS011;21711;49.708;18.568;2023-06-14T01:15:26;6.72;;;3.85;;
31347;SDS011;21711;49.708;18.568;2023-06-14T01:17:56;6.22;;;3.92;;
31347;SDS011;21711;49.708;18.568;2023-06-14T01:20:31;8.40;;;4.15;;
31347;SDS011;21711;49.708;18.568;2023-06-14T01:23:03;8.38;;;4.10;;
31347;SDS011;21711;49.708;18.568;2023-06-14T01:25:31;11.45;;;4.63;;
31347;SDS011;21711;49.708;18.568;2023-06-14T01:27:59;8.27;;;4.38;;
31347;SDS011;21711;49.708;18.568;2023-06-14T01:30:30;8.15;;;4.18;;
31347;SDS011;21711;49.708;18.568;2023-06-14T01:33:03;7.40;;;4.25;;
31347;SDS011;21711;49.708;18.568;2023-06-14T01:35:32;11.80;;;4.82;;
31347;SDS011;21711;49.708;18.568;2023-06-14T01:38:01;8.10;;;4.93;;
31347;SDS011;21711;49.708;18.568;2023-06-14T01:40:30;9.88;;;4.78;;
31347;SDS011;21711;49.708;18.568;2023-06-14T01:43:00;8.80;;;5.30;;
31347;SDS011;21711;49.708;18.568;2023-06-14T01:45:29;11.60;;;5.33;;
31347;SDS011;21711;49.708;18.568;2023-06-14T01:47:58;11.10;;;5.45;;
31347;SDS011;21711;49.708;18.568;2023-06-14T01:50:30;13.05;;;5.35;;
31347;SDS011;21711;49.708;18.568;2023-06-14T01:55:25;8.40;;;5.30;;
31347;SDS011;21711;49.708;18.568;2023-06-14T01:57:53;9.90;;;6.05;;
31347;SDS011;21711;49.708;18.568;2023-06-14T02:00:21;12.20;;;5.97;;
31347;SDS011;21711;49.708;18.568;2023-06-14T02:02:51;14.65;;;7.65;;
31347;SDS011;21711;49.708;18.568;2023-06-14T02:05:18;13.40;;;6.43;;
31347;SDS011;21711;49.708;18.568;2023-06-14T02:07:47;10.15;;;5.72;;
31347;SDS011;21711;49.708;18.568;2023-06-14T02:10:17;12.40;;;6.72;;
31347;SDS011;21711;49.708;18.568;2023-06-14T02:12:46;12.27;;;6.82;;
31347;SDS011;21711;49.708;18.568;2023-06-14T02:15:13;24.60;;;8.68;;
31347;SDS011;21711;49.708;18.568;2023-06-14T02:17:46;13.48;;;7.68;;
31347;SDS011;21711;49.708;18.568;2023-06-14T02:20:16;11.93;;;7.40;;
31347;SDS011;21711;49.708;18.568;2023-06-14T02:22:44;13.85;;;8.38;;
31347;SDS011;21711;49.708;18.568;2023-06-14T02:25:12;14.50;;;8.15;;
31347;SDS011;21711;49.708;18.568;2023-06-14T02:27:40;16.40;;;8.98;;
31347;SDS011;21711;49.708;18.568;2023-06-14T02:30:09;18.90;;;9.20;;
31347;SDS011;21711;49.708;18.568;2023-06-14T02:32:38;21.25;;;8.73;;
31347;SDS011;21711;49.708;18.568;2023-06-14T02:35:07;16.52;;;8.98;;
31347;SDS011;21711;49.708;18.568;2023-06-14T02:37:35;21.00;;;10.18;;
31347;SDS011;21711;49.708;18.568;2023-06-14T02:40:03;22.77;;;10.52;;
31347;SDS011;21711;49.708;18.568;2023-06-14T02:42:32;16.38;;;9.35;;
31347;SDS011;21711;49.708;18.568;2023-06-14T02:44:59;19.50;;;9.65;;
31347;SDS011;21711;49.708;18.568;2023-06-14T02:47:28;15.93;;;9.18;;
31347;SDS011;21711;49.708;18.568;2023-06-14T02:49:56;12.77;;;7.90;;
31347;SDS011;21711;49.708;18.568;2023-06-14T02:52:23;21.88;;;8.38;;
31347;SDS011;21711;49.708;18.568;2023-06-14T02:54:51;17.60;;;9.35;;
31347;SDS011;21711;49.708;18.568;2023-06-14T02:57:20;18.05;;;9.98;;
31347;SDS011;21711;49.708;18.568;2023-06-14T02:59:48;20.55;;;10.98;;
31347;SDS011;21711;49.708;18.568;2023-06-14T03:02:16;19.98;;;10.73;;
31347;SDS011;21711;49.708;18.568;2023-06-14T03:04:44;19.00;;;9.93;;
31347;SDS011;21711;49.708;18.568;2023-06-14T03:07:15;19.08;;;10.15;;
31347;SDS011;21711;49.708;18.568;2023-06-14T03:09:49;32.45;;;11.93;;
31347;SDS011;21711;49.708;18.568;2023-06-14T03:12:17;22.95;;;10.82;;
31347;SDS011;21711;49.708;18.568;2023-06-14T03:14:45;20.85;;;10.57;;
31347;SDS011;21711;49.708;18.568;2023-06-14T03:17:15;18.90;;;9.75;;
31347;SDS011;21711;49.708;18.568;2023-06-14T03:19:44;30.73;;;12.10;;
31347;SDS011;21711;49.708;18.568;2023-06-14T03:22:13;25.33;;;10.93;;
31347;SDS011;21711;49.708;18.568;2023-06-14T03:24:41;20.90;;;10.10;;
31347;SDS011;21711;49.708;18.568;2023-06-14T03:27:13;22.08;;;10.88;;
31347;SDS011;21711;49.708;18.568;2023-06-14T03:29:44;66.78;;;13.63;;
31347;SDS011;21711;49.708;18.568;2023-06-14T03:32:11;27.23;;;13.15;;
31347;SDS011;21711;49.708;18.568;2023-06-14T03:34:41;23.23;;;11.07;;
31347;SDS011;21711;49.708;18.568;2023-06-14T03:37:15;27.58;;;13.55;;
31347;SDS011;21711;49.708;18.568;2023-06-14T03:39:43;34.90;;;13.95;;
31347;SDS011;21711;49.708;18.568;2023-06-14T03:42:20;31.67;;;14.32;;
31347;SDS011;21711;49.708;18.568;2023-06-14T03:44:48;31.58;;;14.38;;
31347;SDS011;21711;49.708;18.568;2023-06-14T03:47:18;32.22;;;14.02;;
31347;SDS011;21711;49.708;18.568;2023-06-14T03:49:45;38.70;;;15.13;;
31347;SDS011;21711;49.708;18.568;2023-06-14T03:52:13;34.17;;;14.23;;
31347;SDS011;21711;49.708;18.568;2023-06-14T03:54:43;37.60;;;15.48;;
31347;SDS011;21711;49.708;18.568;2023-06-14T03:57:15;33.78;;;14.73;;
31347;SDS011;21711;49.708;18.568;2023-06-14T03:59:43;122.95;;;17.88;;
31347;SDS011;21711;49.708;18.568;2023-06-14T04:02:11;62.38;;;15.20;;
31347;SDS011;21711;49.708;18.568;2023-06-14T04:04:42;38.83;;;15.15;;
31347;SDS011;21711;49.708;18.568;2023-06-14T04:07:12;59.83;;;16.88;;
31347;SDS011;21711;49.708;18.568;2023-06-14T04:09:39;67.93;;;17.30;;
31347;SDS011;21711;49.708;18.568;2023-06-14T04:12:08;32.92;;;15.52;;
31347;SDS011;21711;49.708;18.568;2023-06-14T04:14:39;35.53;;;14.50;;
31347;SDS011;21711;49.708;18.568;2023-06-14T04:17:08;55.40;;;16.00;;
31347;SDS011;21711;49.708;18.568;2023-06-14T04:19:37;122.63;;;17.73;;
31347;SDS011;21711;49.708;18.568;2023-06-14T04:22:05;91.30;;;16.80;;
31347;SDS011;21711;49.708;18.568;2023-06-14T04:24:34;38.03;;;15.02;;
31347;SDS011;21711;49.708;18.568;2023-06-14T04:27:02;87.72;;;17.90;;
31347;SDS011;21711;49.708;18.568;2023-06-14T04:29:30;34.38;;;15.10;;
31347;SDS011;21711;49.708;18.568;2023-06-14T04:32:03;39.22;;;15.52;;
31347;SDS011;21711;49.708;18.568;2023-06-14T04:34:32;49.80;;;17.38;;
31347;SDS011;21711;49.708;18.568;2023-06-14T04:37:02;55.65;;;15.30;;
31347;SDS011;21711;49.708;18.568;2023-06-14T04:39:33;66.50;;;15.55;;
31347;SDS011;21711;49.708;18.568;2023-06-14T04:42:01;45.13;;;15.07;;
31347;SDS011;21711;49.708;18.568;2023-06-14T04:44:31;38.15;;;15.45;;
31347;SDS011;21711;49.708;18.568;2023-06-14T04:47:03;58.42;;;15.23;;
31347;SDS011;21711;49.708;18.568;2023-06-14T04:49:31;42.10;;;14.75;;
31347;SDS011;21711;49.708;18.568;2023-06-14T04:51:59;52.30;;;16.80;;
31347;SDS011;21711;49.708;18.568;2023-06-14T04:54:37;39.10;;;15.40;;
31347;SDS011;21711;49.708;18.568;2023-06-14T04:57:09;38.50;;;15.02;;
31347;SDS011;21711;49.708;18.568;2023-06-14T04:59:42;37.00;;;14.55;;
31347;SDS011;21711;49.708;18.568;2023-06-14T05:02:11;36.45;;;13.88;;
31347;SDS011;21711;49.708;18.568;2023-06-14T05:04:38;34.30;;;15.10;;
31347;SDS011;21711;49.708;18.568;2023-06-14T05:07:07;35.80;;;15.57;;
31347;SDS011;21711;49.708;18.568;2023-06-14T05:09:36;32.70;;;14.27;;
31347;SDS011;21711;49.708;18.568;2023-06-14T05:12:04;32.45;;;14.50;;
31347;SDS011;21711;49.708;18.568;2023-06-14T05:14:34;38.20;;;15.32;;
31347;SDS011;21711;49.708;18.568;2023-06-14T05:17:04;41.17;;;15.40;;
31347;SDS011;21711;49.708;18.568;2023-06-14T05:19:32;34.88;;;14.70;;
31347;SDS011;21711;49.708;18.568;2023-06-14T05:21:59;31.48;;;13.88;;
31347;SDS011;21711;49.708;18.568;2023-06-14T05:24:27;37.97;;;14.15;;
31347;SDS011;21711;49.708;18.568;2023-06-14T05:26:57;30.85;;;13.30;;
31347;SDS011;21711;49.708;18.568;2023-06-14T05:29:24;29.98;;;14.30;;
31347;SDS011;21711;49.708;18.568;2023-06-14T05:31:56;30.35;;;13.00;;
31347;SDS011;21711;49.708;18.568;2023-06-14T05:34:23;31.48;;;13.27;;
31347;SDS011;21711;49.708;18.568;2023-06-14T05:36:50;30.58;;;13.98;;
31347;SDS011;21711;49.708;18.568;2023-06-14T05:39:18;30.20;;;12.77;;
31347;SDS011;21711;49.708;18.568;2023-06-14T05:41:46;30.05;;;13.60;;
31347;SDS011;21711;49.708;18.568;2023-06-14T05:44:16;30.92;;;14.00;;
31347;SDS011;21711;49.708;18.568;2023-06-14T05:46:43;35.15;;;14.57;;
31347;SDS011;21711;49.708;18.568;2023-06-14T05:49:10;35.95;;;14.82;;
31347;SDS011;21711;49.708;18.568;2023-06-14T05:51:38;30.63;;;13.23;;
31347;SDS011;21711;49.708;18.568;2023-06-14T05:54:06;32.75;;;13.95;;
31347;SDS011;21711;49.708;18.568;2023-06-14T05:56:33;28.98;;;13.57;;
31347;SDS011;21711;49.708;18.568;2023-06-14T05:59:01;36.78;;;15.18;;
31347;SDS011;21711;49.708;18.568;2023-06-14T06:01:28;28.15;;;13.93;;
31347;SDS011;21711;49.708;18.568;2023-06-14T06:03:57;28.00;;;12.63;;
31347;SDS011;21711;49.708;18.568;2023-06-14T06:06:24;26.25;;;13.02;;
31347;SDS011;21711;49.708;18.568;2023-06-14T06:08:52;34.42;;;14.85;;
31347;SDS011;21711;49.708;18.568;2023-06-14T06:11:20;31.48;;;13.50;;
31347;SDS011;21711;49.708;18.568;2023-06-14T06:13:48;28.52;;;14.43;;
31347;SDS011;21711;49.708;18.568;2023-06-14T06:16:15;27.08;;;13.60;;
31347;SDS011;21711;49.708;18.568;2023-06-14T06:18:42;27.95;;;12.52;;
31347;SDS011;21711;49.708;18.568;2023-06-14T06:21:11;27.50;;;13.13;;
31347;SDS011;21711;49.708;18.568;2023-06-14T06:23:38;29.88;;;12.70;;
31347;SDS011;21711;49.708;18.568;2023-06-14T06:26:06;28.63;;;13.07;;
31347;SDS011;21711;49.708;18.568;2023-06-14T06:28:33;32.65;;;13.60;;
31347;SDS011;21711;49.708;18.568;2023-06-14T06:31:01;26.38;;;12.50;;
31347;SDS011;21711;49.708;18.568;2023-06-14T06:33:30;30.48;;;13.27;;
31347;SDS011;21711;49.708;18.568;2023-06-14T06:35:58;28.63;;;13.35;;
31347;SDS011;21711;49.708;18.568;2023-06-14T06:38:25;25.08;;;12.38;;
31347;SDS011;21711;49.708;18.568;2023-06-14T06:40:52;28.17;;;13.23;;
31347;SDS011;21711;49.708;18.568;2023-06-14T06:43:20;25.45;;;13.32;;
31347;SDS011;21711;49.708;18.568;2023-06-14T06:45:48;24.27;;;11.65;;
31347;SDS011;21711;49.708;18.568;2023-06-14T06:48:16;25.27;;;12.07;;
31347;SDS011;21711;49.708;18.568;2023-06-14T06:50:43;28.48;;;13.30;;
31347;SDS011;21711;49.708;18.568;2023-06-14T06:53:11;25.20;;;11.50;;
31347;SDS011;21711;49.708;18.568;2023-06-14T06:55:43;27.48;;;12.35;;
31347;SDS011;21711;49.708;18.568;2023-06-14T06:58:11;33.97;;;14.82;;
31347;SDS011;21711;49.708;18.568;2023-06-14T07:00:40;22.90;;;11.10;;
31347;SDS011;21711;49.708;18.568;2023-06-14T07:03:07;23.85;;;11.52;;
31347;SDS011;21711;49.708;18.568;2023-06-14T07:05:35;24.27;;;11.52;;
31347;SDS011;21711;49.708;18.568;2023-06-14T07:08:03;26.92;;;11.15;;
31347;SDS011;21711;49.708;18.568;2023-06-14T07:10:30;22.35;;;11.00;;
31347;SDS011;21711;49.708;18.568;2023-06-14T07:12:58;20.30;;;11.32;;
31347;SDS011;21711;49.708;18.568;2023-06-14T07:15:26;21.60;;;10.98;;
31347;SDS011;21711;49.708;18.568;2023-06-14T07:17:53;18.33;;;9.40;;
31347;SDS011;21711;49.708;18.568;2023-06-14T07:20:26;19.80;;;10.85;;
31347;SDS011;21711;49.708;18.568;2023-06-14T07:22:54;20.08;;;10.70;;
31347;SDS011;21711;49.708;18.568;2023-06-14T07:25:22;20.45;;;11.38;;
31347;SDS011;21711;49.708;18.568;2023-06-14T07:27:49;25.55;;;11.88;;
31347;SDS011;21711;49.708;18.568;2023-06-14T07:30:17;22.63;;;11.77;;
31347;SDS011;21711;49.708;18.568;2023-06-14T07:32:44;20.65;;;10.70;;
31347;SDS011;21711;49.708;18.568;2023-06-14T07:35:12;22.38;;;11.40;;
31347;SDS011;21711;49.708;18.568;2023-06-14T07:37:40;17.85;;;10.23;;
31347;SDS011;21711;49.708;18.568;2023-06-14T07:40:07;20.83;;;10.70;;
31347;SDS011;21711;49.708;18.568;2023-06-14T07:42:36;20.08;;;10.90;;
31347;SDS011;21711;49.708;18.568;2023-06-14T07:45:04;25.48;;;11.40;;
31347;SDS011;21711;49.708;18.568;2023-06-14T07:47:32;21.20;;;9.95;;
31347;SDS011;21711;49.708;18.568;2023-06-14T07:50:01;19.13;;;10.82;;
31347;SDS011;21711;49.708;18.568;2023-06-14T07:52:29;19.48;;;10.85;;
31347;SDS011;21711;49.708;18.568;2023-06-14T07:54:57;19.92;;;10.10;;
31347;SDS011;21711;49.708;18.568;2023-06-14T07:57:24;23.27;;;9.98;;
31347;SDS011;21711;49.708;18.568;2023-06-14T07:59:52;16.15;;;8.65;;
31347;SDS011;21711;49.708;18.568;2023-06-14T08:02:19;17.92;;;9.30;;
31347;SDS011;21711;49.708;18.568;2023-06-14T08:04:47;18.02;;;9.82;;
31347;SDS011;21711;49.708;18.568;2023-06-14T08:07:15;18.00;;;9.20;;
31347;SDS011;21711;49.708;18.568;2023-06-14T08:09:42;24.50;;;10.27;;
31347;SDS011;21711;49.708;18.568;2023-06-14T08:12:09;18.80;;;10.63;;
31347;SDS011;21711;49.708;18.568;2023-06-14T08:14:37;20.38;;;10.25;;
31347;SDS011;21711;49.708;18.568;2023-06-14T08:17:07;13.90;;;8.82;;
31347;SDS011;21711;49.708;18.568;2023-06-14T08:19:34;18.20;;;9.68;;
31347;SDS011;21711;49.708;18.568;2023-06-14T08:22:02;21.25;;;9.32;;
31347;SDS011;21711;49.708;18.568;2023-06-14T08:24:30;16.75;;;9.50;;
31347;SDS011;21711;49.708;18.568;2023-06-14T08:26:57;15.60;;;9.27;;
31347;SDS011;21711;49.708;18.568;2023-06-14T08:29:27;18.10;;;9.40;;
31347;SDS011;21711;49.708;18.568;2023-06-14T08:31:57;15.80;;;8.85;;
31347;SDS011;21711;49.708;18.568;2023-06-14T08:34:25;14.30;;;8.48;;
31347;SDS011;21711;49.708;18.568;2023-06-14T08:36:53;17.50;;;9.45;;
31347;SDS011;21711;49.708;18.568;2023-06-14T08:39:20;16.33;;;8.68;;
31347;SDS011;21711;49.708;18.568;2023-06-14T08:41:48;17.30;;;9.18;;
31347;SDS011;21711;49.708;18.568;2023-06-14T08:44:17;15.93;;;9.75;;
31347;SDS011;21711;49.708;18.568;2023-06-14T08:46:45;14.20;;;8.18;;
31347;SDS011;21711;49.708;18.568;2023-06-14T08:49:15;16.05;;;8.55;;
31347;SDS011;21711;49.708;18.568;2023-06-14T08:51:43;15.82;;;9.07;;
31347;SDS011;21711;49.708;18.568;2023-06-14T08:54:11;13.85;;;8.57;;
31347;SDS011;21711;49.708;18.568;2023-06-14T08:56:39;12.95;;;7.72;;
31347;SDS011;21711;49.708;18.568;2023-06-14T08:59:08;15.90;;;8.05;;
31347;SDS011;21711;49.708;18.568;2023-06-14T09:01:37;13.27;;;8.02;;
31347;SDS011;21711;49.708;18.568;2023-06-14T09:04:11;11.23;;;7.35;;
31347;SDS011;21711;49.708;18.568;2023-06-14T09:06:39;13.35;;;8.85;;
31347;SDS011;21711;49.708;18.568;2023-06-14T09:09:07;12.80;;;8.70;;
31347;SDS011;21711;49.708;18.568;2023-06-14T09:11:34;14.52;;;9.27;;
31347;SDS011;21711;49.708;18.568;2023-06-14T09:14:02;14.27;;;8.20;;
31347;SDS011;21711;49.708;18.568;2023-06-14T09:16:31;13.18;;;8.32;;
31347;SDS011;21711;49.708;18.568;2023-06-14T09:19:00;14.65;;;7.90;;
31347;SDS011;21711;49.708;18.568;2023-06-14T09:21:27;10.80;;;7.68;;
31347;SDS011;21711;49.708;18.568;2023-06-14T09:24:00;11.02;;;7.50;;
31347;SDS011;21711;49.708;18.568;2023-06-14T09:26:28;11.93;;;7.25;;
31347;SDS011;21711;49.708;18.568;2023-06-14T09:28:56;11.48;;;7.38;;
31347;SDS011;21711;49.708;18.568;2023-06-14T09:31:24;14.82;;;7.20;;
31347;SDS011;21711;49.708;18.568;2023-06-14T09:33:51;12.82;;;7.95;;
31347;SDS011;21711;49.708;18.568;2023-06-14T09:36:22;12.88;;;7.65;;
31347;SDS011;21711;49.708;18.568;2023-06-14T09:38:56;11.10;;;7.78;;
31347;SDS011;21711;49.708;18.568;2023-06-14T09:41:35;11.88;;;7.25;;
31347;SDS011;21711;49.708;18.568;2023-06-14T09:44:08;12.15;;;7.63;;
31347;SDS011;21711;49.708;18.568;2023-06-14T09:46:46;10.00;;;6.95;;
31347;SDS011;21711;49.708;18.568;2023-06-14T09:49:14;10.65;;;7.85;;
31347;SDS011;21711;49.708;18.568;2023-06-14T09:51:43;12.82;;;7.95;;
31347;SDS011;21711;49.708;18.568;2023-06-14T09:54:15;12.02;;;7.95;;
31347;SDS011;21711;49.708;18.568;2023-06-14T09:56:47;9.98;;;6.90;;
31347;SDS011;21711;49.708;18.568;2023-06-14T09:59:21;12.18;;;7.00;;
31347;SDS011;21711;49.708;18.568;2023-06-14T10:01:57;9.45;;;5.78;;
31347;SDS011;21711;49.708;18.568;2023-06-14T10:04:27;7.63;;;5.78;;
31347;SDS011;21711;49.708;18.568;2023-06-14T10:06:58;10.48;;;6.30;;
31347;SDS011;21711;49.708;18.568;2023-06-14T10:09:27;9.93;;;6.20;;
31347;SDS011;21711;49.708;18.568;2023-06-14T10:11:58;9.82;;;7.13;;
31347;SDS011;21711;49.708;18.568;2023-06-14T10:14:27;10.18;;;7.00;;
31347;SDS011;21711;49.708;18.568;2023-06-14T10:19:34;9.88;;;6.72;;
31347;SDS011;21711;49.708;18.568;2023-06-14T10:22:24;9.95;;;6.05;;
31347;SDS011;21711;49.708;18.568;2023-06-14T10:25:01;9.82;;;6.32;;
31347;SDS011;21711;49.708;18.568;2023-06-14T10:27:34;14.02;;;7.32;;
31347;SDS011;21711;49.708;18.568;2023-06-14T10:30:03;8.60;;;6.22;;
31347;SDS011;21711;49.708;18.568;2023-06-14T10:32:34;7.53;;;5.32;;
31347;SDS011;21711;49.708;18.568;2023-06-14T10:35:05;10.27;;;5.45;;
31347;SDS011;21711;49.708;18.568;2023-06-14T10:37:33;8.18;;;6.43;;
31347;SDS011;21711;49.708;18.568;2023-06-14T10:40:02;13.27;;;7.25;;
31347;SDS011;21711;49.708;18.568;2023-06-14T10:42:31;13.25;;;8.23;;
31347;SDS011;21711;49.708;18.568;2023-06-14T10:45:00;12.50;;;8.35;;
31347;SDS011;21711;49.708;18.568;2023-06-14T10:47:29;9.93;;;6.55;;
31347;SDS011;21711;49.708;18.568;2023-06-14T10:50:04;14.48;;;6.32;;
31347;SDS011;21711;49.708;18.568;2023-06-14T10:52:36;9.38;;;5.60;;
31347;SDS011;21711;49.708;18.568;2023-06-14T10:55:12;10.07;;;6.95;;
31347;SDS011;21711;49.708;18.568;2023-06-14T11:00:21;7.75;;;6.20;;
31347;SDS011;21711;49.708;18.568;2023-06-14T11:11:15;8.95;;;6.30;;
31347;SDS011;21711;49.708;18.568;2023-06-14T11:13:44;8.20;;;5.97;;
31347;SDS011;21711;49.708;18.568;2023-06-14T11:16:14;12.55;;;6.97;;
31347;SDS011;21711;49.708;18.568;2023-06-14T11:18:43;9.15;;;6.10;;
31347;SDS011;21711;49.708;18.568;2023-06-14T11:21:15;10.77;;;5.95;;
31347;SDS011;21711;49.708;18.568;2023-06-14T11:23:51;9.88;;;6.60;;
31347;SDS011;21711;49.708;18.568;2023-06-14T11:26:25;13.85;;;6.88;;
31347;SDS011;21711;49.708;18.568;2023-06-14T11:28:58;8.45;;;6.03;;
31347;SDS011;21711;49.708;18.568;2023-06-14T11:31:27;11.63;;;6.00;;
31347;SDS011;21711;49.708;18.568;2023-06-14T11:33:56;10.57;;;6.57;;
31347;SDS011;21711;49.708;18.568;2023-06-14T11:36:29;10.97;;;6.07;;
31347;SDS011;21711;49.708;18.568;2023-06-14T11:38:58;11.02;;;6.85;;
31347;SDS011;21711;49.708;18.568;2023-06-14T11:41:37;7.80;;;5.55;;
31347;SDS011;21711;49.708;18.568;2023-06-14T11:44:07;13.25;;;6.28;;
31347;SDS011;21711;49.708;18.568;2023-06-14T11:46:35;10.52;;;6.55;;
31347;SDS011;21711;49.708;18.568;2023-06-14T11:49:02;11.88;;;6.70;;
31347;SDS011;21711;49.708;18.568;2023-06-14T11:51:33;10.63;;;5.97;;
31347;SDS011;21711;49.708;18.568;2023-06-14T11:54:02;9.50;;;5.78;;
31347;SDS011;21711;49.708;18.568;2023-06-14T11:56:31;7.30;;;4.90;;
31347;SDS011;21711;49.708;18.568;2023-06-14T11:58:59;10.85;;;5.63;;
31347;SDS011;21711;49.708;18.568;2023-06-14T12:01:29;7.30;;;5.40;;
31347;SDS011;21711;49.708;18.568;2023-06-14T12:03:58;7.13;;;4.88;;
31347;SDS011;21711;49.708;18.568;2023-06-14T12:06:28;12.00;;;5.72;;
31347;SDS011;21711;49.708;18.568;2023-06-14T12:09:03;6.88;;;5.13;;
31347;SDS011;21711;49.708;18.568;2023-06-14T12:11:40;7.15;;;5.40;;
31347;SDS011;21711;49.708;18.568;2023-06-14T12:14:08;8.68;;;5.55;;
31347;SDS011;21711;49.708;18.568;2023-06-14T12:16:38;8.13;;;5.18;;
31347;SDS011;21711;49.708;18.568;2023-06-14T12:19:15;8.00;;;5.13;;
31347;SDS011;21711;49.708;18.568;2023-06-14T12:21:46;10.23;;;4.95;;
31347;SDS011;21711;49.708;18.568;2023-06-14T12:24:16;11.15;;;4.93;;
31347;SDS011;21711;49.708;18.568;2023-06-14T12:26:43;9.65;;;5.40;;
31347;SDS011;21711;49.708;18.568;2023-06-14T12:29:12;7.65;;;5.18;;
31347;SDS011;21711;49.708;18.568;2023-06-14T12:31:39;10.63;;;5.30;;
31347;SDS011;21711;49.708;18.568;2023-06-14T12:34:08;9.20;;;5.70;;
31347;SDS011;21711;49.708;18.568;2023-06-14T12:36:36;7.15;;;4.93;;
31347;SDS011;21711;49.708;18.568;2023-06-14T12:39:11;6.70;;;4.82;;
31347;SDS011;21711;49.708;18.568;2023-06-14T12:41:39;6.30;;;4.68;;
31347;SDS011;21711;49.708;18.568;2023-06-14T12:44:08;6.90;;;4.22;;
31347;SDS011;21711;49.708;18.568;2023-06-14T12:46:37;8.27;;;4.75;;
31347;SDS011;21711;49.708;18.568;2023-06-14T12:49:09;6.22;;;4.18;;
31347;SDS011;21711;49.708;18.568;2023-06-14T12:51:38;6.50;;;4.50;;
31347;SDS011;21711;49.708;18.568;2023-06-14T12:54:07;6.93;;;4.47;;
31347;SDS011;21711;49.708;18.568;2023-06-14T12:56:35;8.13;;;4.43;;
31347;SDS011;21711;49.708;18.568;2023-06-14T12:59:03;8.82;;;4.35;;
31347;SDS011;21711;49.708;18.568;2023-06-14T13:01:30;8.80;;;5.03;;
31347;SDS011;21711;49.708;18.568;2023-06-14T13:03:58;6.85;;;5.00;;
31347;SDS011;21711;49.708;18.568;2023-06-14T13:06:25;8.85;;;5.07;;
31347;SDS011;21711;49.708;18.568;2023-06-14T13:08:52;7.57;;;4.70;;
31347;SDS011;21711;49.708;18.568;2023-06-14T13:11:21;7.28;;;5.05;;
31347;SDS011;21711;49.708;18.568;2023-06-14T13:13:48;10.90;;;4.80;;
31347;SDS011;21711;49.708;18.568;2023-06-14T13:16:16;7.78;;;5.28;;
31347;SDS011;21711;49.708;18.568;2023-06-14T13:18:43;7.50;;;4.47;;
31347;SDS011;21711;49.708;18.568;2023-06-14T13:21:11;7.32;;;5.10;;
31347;SDS011;21711;49.708;18.568;2023-06-14T13:23:38;6.53;;;5.03;;
31347;SDS011;21711;49.708;18.568;2023-06-14T13:26:06;7.20;;;4.32;;
31347;SDS011;21711;49.708;18.568;2023-06-14T13:28:33;10.82;;;5.82;;
31347;SDS011;21711;49.708;18.568;2023-06-14T13:31:01;9.80;;;4.43;;
31347;SDS011;21711;49.708;18.568;2023-06-14T13:33:29;8.65;;;5.05;;
31347;SDS011;21711;49.708;18.568;2023-06-14T13:35:58;7.82;;;4.88;;
31347;SDS011;21711;49.708;18.568;2023-06-14T13:38:25;10.55;;;5.18;;
31347;SDS011;21711;49.708;18.568;2023-06-14T13:40:52;9.43;;;5.18;;
31347;SDS011;21711;49.708;18.568;2023-06-14T13:43:20;6.18;;;4.75;;
31347;SDS011;21711;49.708;18.568;2023-06-14T13:45:49;9.15;;;6.22;;
31347;SDS011;21711;49.708;18.568;2023-06-14T13:48:16;7.38;;;5.07;;
31347;SDS011;21711;49.708;18.568;2023-06-14T13:50:44;8.75;;;4.45;;
31347;SDS011;21711;49.708;18.568;2023-06-14T13:53:12;11.63;;;5.55;;
31347;SDS011;21711;49.708;18.568;2023-06-14T13:55:40;10.85;;;6.00;;
31347;SDS011;21711;49.708;18.568;2023-06-14T13:58:08;10.88;;;5.65;;
31347;SDS011;21711;49.708;18.568;2023-06-14T14:00:35;10.43;;;6.40;;
31347;SDS011;21711;49.708;18.568;2023-06-14T14:03:06;11.48;;;7.82;;
31347;SDS011;21711;49.708;18.568;2023-06-14T14:05:35;11.40;;;7.60;;
31347;SDS011;21711;49.708;18.568;2023-06-14T14:08:03;12.40;;;8.13;;
31347;SDS011;21711;49.708;18.568;2023-06-14T14:10:30;10.85;;;7.20;;
31347;SDS011;21711;49.708;18.568;2023-06-14T14:12:58;13.00;;;8.48;;
31347;SDS011;21711;49.708;18.568;2023-06-14T14:15:26;14.93;;;7.53;;
31347;SDS011;21711;49.708;18.568;2023-06-14T14:17:55;13.55;;;8.30;;
31347;SDS011;21711;49.708;18.568;2023-06-14T14:20:24;12.75;;;6.88;;
31347;SDS011;21711;49.708;18.568;2023-06-14T14:22:51;12.30;;;8.18;;
31347;SDS011;21711;49.708;18.568;2023-06-14T14:25:19;11.80;;;7.72;;
31347;SDS011;21711;49.708;18.568;2023-06-14T14:27:46;12.43;;;8.00;;
31347;SDS011;21711;49.708;18.568;2023-06-14T14:30:14;12.82;;;8.52;;
31347;SDS011;21711;49.708;18.568;2023-06-14T14:32:44;10.23;;;7.55;;
31347;SDS011;21711;49.708;18.568;2023-06-14T14:35:11;16.40;;;8.25;;
31347;SDS011;21711;49.708;18.568;2023-06-14T14:37:40;12.73;;;7.53;;
31347;SDS011;21711;49.708;18.568;2023-06-14T14:40:08;8.95;;;6.85;;
31347;SDS011;21711;49.708;18.568;2023-06-14T14:42:36;10.32;;;6.32;;
31347;SDS011;21711;49.708;18.568;2023-06-14T14:45:04;10.68;;;7.63;;
31347;SDS011;21711;49.708;18.568;2023-06-14T14:47:32;12.88;;;7.35;;
31347;SDS011;21711;49.708;18.568;2023-06-14T14:49:59;11.80;;;7.63;;